Flight Briefing for CMB849

Departure Arrival
Diego Garcia (FJDG)
Click to view FAA NOTAMS
Paya Lebar Airport (WSAP)
Click to view FAA NOTAMS
Departure Time Arrival Time
N/A N/A
Aircraft Distance
B757-200SF 1958nm
Departure METAR Arrival METAR
FJDG 230655Z 08010KT 9999 FEW020 SCT050 BKN080 29/27 A2986 RMK SLP108 T02940268 WSAP 230700Z 20009KT 9999 FEW020 BKN300 33/24 Q1009
Suggested Route
NKW R212 PIBED N633 PKU R469 ASUNA


View recent IFR Routes data
Notes
USTRANSCOM CONTRACT FLIGHT

Charts and Procedures

Charts for FJDG
No chart available
Charts for WSAP
No chart available

Windy.com Weather Map